Terminal Aerodrome Forecast
Issued by NWS

Home | Current Version | Previous Version | Text Only | Print | Product List | Glossary On
Versions: 1 2 3 4 5 6 7 8 9 10 11 12 13 14 15 16 17 18 19 20 21 22 23 24 25
000
FTUS44 KLZK 231600 AAC
TAFADF
TAF AMD
KADF 231613Z 2316/2412 19008KT 6SM BR OVC008
      TEMPO 2316/2320 4SM -RA BR OVC005
     FM232000 21009KT P6SM OVC012
     FM240000 26012G22KT P6SM SCT060 BKN250=

USA.gov is the U.S. government's official web portal to all federal, state and local government web resources and services.